Change the Weather History Date:

Monday, March 18, 2013

  Actual Average Record
Temperature  
Mean Temperature 20 °F -  
Max Temperature 33 °F 41 °F 77 °F (2012)
Min Temperature 6 °F 23 °F -6 °F (1993)
Degree Days  
Heating Degree Days 46    
Moisture  
Dew Point 13 °F    
Average Humidity 85    
Maximum Humidity 100    
Minimum Humidity 73    
Precipitation  
Precipitation 0.00 in - - ()
Sea Level Pressure  
Sea Level Pressure 29.72 in    
Wind  
Wind Speed 25 mph (West)    
Max Wind Speed 33 mph    
Max Gust Speed 43 mph    
Visibility 4 miles    
Events Snow    
Averages and records for this station are not official NWS values.
T = Trace of Precipitation, MM = Missing Value Source: NWS Daily Summary

Daily Weather History Graph

Daily Weather History Graph

Search for Another Location

Airport or City:

Trip Planner

Search our weather history database for the weather conditions in past years. The results will help you decide how hot, cold, wet, or windy it might be!

Date:

Astronomy

Mar. 18, 2013 Rise Set
Actual Time 7:32 AM CDT 7:36 PM CDT
Civil Twilight 7:02 AM CDT 8:06 PM CDT
Nautical Twilight 6:28 AM CDT 8:41 PM CDT
Astronomical Twilight 5:52 AM CDT 9:16 PM CDT
Moon 11:15 AM CDT (3/18) 1:54 AM CDT (3/18)
Length of Visible Light 13h 03m
Length of Day
12h 03m
Waxing Crescent, 41% of the Moon is Illuminated
Mar 18
Waxing Crescent
Mar 19
First Quarter
Mar 27
Full
Apr 2
Last Quarter
Apr 10
New

Hourly Weather History & Observations

Time (CDT) Temp. Windchill Dew Point Humidity Pressure Visibility Wind Dir Wind Speed Gust Speed Precip Events Conditions
12:15 AM 28.4 °F 13.8 °F 26.6 °F 93% 29.61 in 3.0 mi SE 25.3 mph 28.8 mph N/A Snow Light Snow
12:34 AM 28.4 °F 13.5 °F 26.6 °F 93% 29.59 in 1.8 mi SE 26.5 mph 34.5 mph N/A   Overcast
12:55 AM 28.4 °F 13.3 °F 26.6 °F 93% 29.58 in 2.5 mi SE 27.6 mph - N/A   Overcast
1:15 AM 28.4 °F 13.8 °F 28.4 °F 100% 29.56 in 2.5 mi SE 25.3 mph - N/A   Overcast
1:34 AM 28.4 °F 13.3 °F 28.4 °F 100% 29.55 in 2.5 mi SE 27.6 mph - N/A   Overcast
1:55 AM 28.4 °F 13.5 °F 28.4 °F 100% 29.54 in 2.5 mi SE 26.5 mph 31.1 mph N/A   Overcast
2:14 AM 30.2 °F 16.2 °F 28.4 °F 93% 29.53 in 2.0 mi SE 25.3 mph 31.1 mph N/A   Overcast
2:34 AM 30.2 °F 16.2 °F 28.4 °F 93% 29.52 in 2.5 mi SE 25.3 mph - N/A   Overcast
2:54 AM 30.2 °F 16.5 °F 28.4 °F 93% 29.50 in 3.0 mi SE 24.2 mph - N/A Snow Light Snow
3:14 AM 30.2 °F 16.5 °F 30.2 °F 100% 29.48 in 3.0 mi SE 24.2 mph 29.9 mph N/A   Overcast
3:34 AM 30.2 °F 17.1 °F 30.2 °F 100% 29.47 in 3.0 mi SE 21.9 mph - N/A Snow Light Snow
3:54 AM 32.0 °F 19.8 °F 30.2 °F 93% 29.46 in 5.0 mi SE 20.7 mph - N/A   Overcast
4:14 AM 33.8 °F 23.2 °F 32.0 °F 93% 29.44 in 10.0 mi South 17.3 mph 23.0 mph N/A   Overcast
4:34 AM 33.8 °F 21.3 °F 32.0 °F 93% 29.44 in 10.0 mi West 24.2 mph 32.2 mph N/A   Overcast
4:54 AM 26.6 °F 9.8 °F 24.8 °F 93% 29.47 in 5.0 mi West 32.2 mph 42.6 mph N/A   Overcast
5:14 AM 26.6 °F 12.4 °F 24.8 °F 93% 29.50 in 3.0 mi West 21.9 mph 32.2 mph N/A   Overcast
5:34 AM 24.8 °F 10.0 °F 21.2 °F 86% 29.51 in 3.0 mi West 21.9 mph 41.4 mph N/A Snow Light Snow
5:54 AM 21.2 °F 5.6 °F 19.4 °F 93% 29.54 in 7.0 mi West 20.7 mph 29.9 mph N/A   Overcast
6:14 AM 21.2 °F 4.2 °F 17.6 °F 86% 29.55 in 3.0 mi West 25.3 mph 32.2 mph N/A   Overcast
6:34 AM 17.6 °F 0.1 °F 15.8 °F 93% 29.58 in 3.0 mi West 23.0 mph 36.8 mph N/A Snow Light Snow
6:54 AM 15.8 °F -1.9 °F 12.2 °F 86% 29.59 in 4.0 mi West 21.9 mph 35.7 mph N/A Snow Light Snow
7:15 AM 15.8 °F -2.3 °F 12.2 °F 86% 29.60 in 5.0 mi West 23.0 mph 36.8 mph N/A Snow Light Snow
7:34 AM 15.8 °F -3.7 °F 10.4 °F 79% 29.61 in 4.0 mi West 27.6 mph 40.3 mph N/A Snow Light Snow
7:54 AM 14.0 °F -7.1 °F 10.4 °F 86% 29.60 in 3.0 mi West 31.1 mph 42.6 mph N/A Snow Light Snow
8:14 AM 12.2 °F -7.9 °F 8.6 °F 85% 29.62 in 4.0 mi West 25.3 mph 38.0 mph N/A Snow Light Snow
8:34 AM 12.2 °F -7.5 °F 8.6 °F 85% 29.63 in 5.0 mi West 24.2 mph 35.7 mph N/A   Mostly Cloudy
8:55 AM 12.2 °F -8.2 °F 8.6 °F 85% 29.63 in 4.0 mi West 26.5 mph 40.3 mph N/A   Haze
9:15 AM 12.2 °F -9.3 °F 8.6 °F 85% 29.64 in 4.0 mi West 29.9 mph 36.8 mph N/A   Overcast
9:35 AM 12.2 °F -9.3 °F 8.6 °F 85% 29.65 in 3.0 mi West 29.9 mph 39.1 mph N/A   Mostly Cloudy
9:54 AM 12.2 °F -10.2 °F 6.8 °F 79% 29.65 in 3.0 mi West 33.4 mph 39.1 mph N/A Snow Light Snow
10:15 AM 12.2 °F -9.3 °F 8.6 °F 85% 29.67 in 2.0 mi West 29.9 mph 42.6 mph N/A Snow Light Snow
10:34 AM 12.2 °F -9.9 °F 8.6 °F 85% 29.67 in 1.8 mi West 32.2 mph 41.4 mph N/A   Overcast
10:54 AM 12.2 °F -9.9 °F 8.6 °F 85% 29.69 in 1.5 mi West 32.2 mph 41.4 mph N/A Snow Light Snow
11:14 AM 12.2 °F -9.6 °F 8.6 °F 85% 29.69 in 2.0 mi West 31.1 mph 40.3 mph N/A Snow Light Snow
11:34 AM 12.2 °F -9.3 °F 8.6 °F 85% 29.70 in 2.0 mi West 29.9 mph 39.1 mph N/A   Haze
11:54 AM 12.2 °F -8.9 °F 8.6 °F 85% 29.71 in 1.8 mi WNW 28.8 mph 40.3 mph N/A   Overcast
12:15 PM 12.2 °F -9.9 °F 8.6 °F 85% 29.72 in 1.0 mi West 32.2 mph 41.4 mph N/A Snow Light Snow
12:34 PM 14.0 °F -5.5 °F 8.6 °F 79% 29.73 in 1.8 mi West 25.3 mph 39.1 mph N/A   Haze
12:54 PM 12.2 °F -9.6 °F 8.6 °F 85% 29.73 in 1.0 mi WNW 31.1 mph 40.3 mph N/A Snow Light Snow
1:14 PM 14.0 °F -7.4 °F 8.6 °F 79% 29.74 in 1.5 mi WNW 32.2 mph 41.4 mph N/A Snow Light Snow
1:34 PM 12.2 °F -7.9 °F 8.6 °F 85% 29.76 in 1.0 mi West 25.3 mph 39.1 mph N/A Snow Light Snow
1:54 PM 14.0 °F -6.2 °F 8.6 °F 79% 29.76 in 1.5 mi WNW 27.6 mph 40.3 mph N/A Snow Light Snow
2:15 PM 14.0 °F -6.8 °F 8.6 °F 79% 29.77 in 1.5 mi WNW 29.9 mph 39.1 mph N/A Snow Light Snow
2:34 PM 14.0 °F -6.5 °F 8.6 °F 79% 29.77 in 1.2 mi WNW 28.8 mph 39.1 mph N/A Snow Light Snow
2:54 PM 14.0 °F -5.1 °F 10.4 °F 86% 29.78 in 0.8 mi WNW 24.2 mph 33.4 mph N/A Snow Light Snow
3:14 PM 14.0 °F -5.1 °F 10.4 °F 86% 29.78 in 0.8 mi WNW 24.2 mph 32.2 mph N/A Snow Light Snow
3:34 PM 14.0 °F -6.2 °F 10.4 °F 86% 29.79 in 1.8 mi WNW 27.6 mph 39.1 mph N/A Snow Light Snow
3:54 PM 14.0 °F -6.2 °F 10.4 °F 86% 29.80 in 1.0 mi West 27.6 mph 36.8 mph N/A Snow Light Snow
4:14 PM 14.0 °F -4.3 °F 10.4 °F 86% 29.81 in 1.0 mi WNW 21.9 mph 35.7 mph N/A Snow Light Snow
4:35 PM 14.0 °F -4.3 °F 10.4 °F 86% 29.82 in 1.5 mi WNW 21.9 mph 32.2 mph N/A Snow Light Snow
4:54 PM 14.0 °F -5.5 °F 10.4 °F 86% 29.83 in 1.2 mi WNW 25.3 mph 32.2 mph N/A Snow Light Snow
5:14 PM 12.2 °F -8.6 °F 8.6 °F 85% 29.83 in 1.5 mi WNW 27.6 mph 33.4 mph N/A Snow Light Snow
5:34 PM 14.0 °F -6.2 °F 8.6 °F 79% 29.84 in 1.5 mi WNW 27.6 mph 36.8 mph N/A Snow Light Snow
5:54 PM 14.0 °F -4.7 °F 8.6 °F 79% 29.85 in 1.8 mi WNW 23.0 mph 33.4 mph N/A Snow Light Snow
6:14 PM 12.2 °F -6.7 °F 8.6 °F 85% 29.86 in 2.0 mi WNW 21.9 mph 33.4 mph N/A Snow Light Snow
6:34 PM 12.2 °F -6.7 °F 8.6 °F 85% 29.88 in 4.0 mi WNW 21.9 mph 26.5 mph N/A Snow Light Snow
6:54 PM 12.2 °F -7.1 °F 8.6 °F 85% 29.89 in 4.0 mi WNW 23.0 mph 31.1 mph N/A Snow Light Snow
7:15 PM 12.2 °F -7.1 °F 6.8 °F 79% 29.90 in 10.0 mi WNW 23.0 mph 28.8 mph N/A   Mostly Cloudy
7:35 PM 10.4 °F -7.2 °F 6.8 °F 85% 29.91 in 10.0 mi WNW 17.3 mph 23.0 mph N/A   Clear
7:54 PM 10.4 °F -8.6 °F 6.8 °F 85% 29.92 in 10.0 mi WNW 20.7 mph 29.9 mph N/A   Clear
8:14 PM 10.4 °F -9.5 °F 5.0 °F 79% 29.93 in 10.0 mi WNW 23.0 mph 31.1 mph N/A   Scattered Clouds
8:34 PM 10.4 °F -8.6 °F 3.2 °F 73% 29.94 in 10.0 mi WNW 20.7 mph 29.9 mph N/A   Clear
8:54 PM 10.4 °F -9.5 °F 3.2 °F 73% 29.94 in 10.0 mi WNW 23.0 mph 27.6 mph N/A   Clear
9:14 PM 10.4 °F -9.1 °F 3.2 °F 73% 29.95 in 10.0 mi WNW 21.9 mph 28.8 mph N/A   Clear
9:34 PM 8.6 °F -10.5 °F 3.2 °F 79% 29.96 in 10.0 mi WNW 19.6 mph 26.5 mph N/A   Clear
9:55 PM 8.6 °F -8.3 °F 3.2 °F 79% 29.97 in 10.0 mi West 15.0 mph - N/A   Clear
10:15 PM 8.6 °F -9.5 °F 1.4 °F 73% 29.98 in 10.0 mi West 17.3 mph - N/A   Clear
10:34 PM 8.6 °F -8.9 °F 3.2 °F 79% 29.98 in 10.0 mi West 16.1 mph - N/A   Clear
10:54 PM 8.6 °F -8.3 °F 1.4 °F 73% 29.99 in 10.0 mi West 15.0 mph 23.0 mph N/A   Clear
11:15 PM 6.8 °F -12.4 °F 1.4 °F 79% 29.99 in 10.0 mi WNW 18.4 mph - N/A   Clear
11:34 PM 6.8 °F -10.7 °F 1.4 °F 79% 29.99 in 10.0 mi WNW 15.0 mph 23.0 mph N/A   Clear